Terminal Aerodrome Forecast
Issued by NWS Anchorage, AK

Home | Current Version | Previous Version | Text Only | Print | Product List | Glossary On
Versions: 1 2 3 4 5 6 7 8 9 10 11 12 13 14 15 16 17 18 19 20 21 22 23 24 25
000
FTAK31 PANC 252331
TAFANC
TAF
PANC 252331Z 2600/2706 VRB05KT P6SM VCSH SCT005 BKN015
      TEMPO 2600/2602 SCT015 BKN025
     FM260200 22005KT P6SM VCSH FEW015 SCT025 BKN045
      TEMPO 2602/2606 BKN025
     FM261000 36003KT P6SM VCFG FEW005 BKN015
     FM262000 30004KT P6SM SCT045 SCT090=

USA.gov is the U.S. government's official web portal to all federal, state and local government web resources and services.